createdAt,value
2022-11-29T00:01:24.113Z,55.58
2022-11-29T00:03:52.240Z,49.45
2022-11-29T00:06:22.467Z,54.42
2022-11-29T00:08:50.697Z,44.40
2022-11-29T00:11:40.521Z,45.47
2022-11-29T00:14:12.323Z,41.55
2022-11-29T00:16:40.997Z,48.45
2022-11-29T00:19:09.599Z,44.80
2022-11-29T00:21:38.063Z,51.83
2022-11-29T00:24:06.824Z,43.30
2022-11-29T00:26:34.905Z,52.50
2022-11-29T00:29:02.839Z,49.13
2022-11-29T00:31:33.481Z,40.28
2022-11-29T00:34:03.685Z,46.72
2022-11-29T00:36:32.230Z,43.80
2022-11-29T00:39:00.227Z,51.65
2022-11-29T00:41:28.310Z,46.80
2022-11-29T00:43:56.502Z,50.30
2022-11-29T00:46:25.251Z,47.63
2022-11-29T00:48:54.659Z,39.17
2022-11-29T00:51:22.491Z,48.17
2022-11-29T00:53:50.709Z,48.53
2022-11-29T00:56:18.875Z,38.50
2022-11-29T00:58:48.544Z,45.70
2022-11-29T01:01:16.935Z,50.33
2022-11-29T01:03:44.957Z,55.53
2022-11-29T01:06:17.041Z,51.72
2022-11-29T01:08:45.755Z,47.83
2022-11-29T01:11:15.740Z,65.82
2022-11-29T01:13:45.415Z,51.15
2022-11-29T01:16:14.569Z,52.05
2022-11-29T01:18:43.296Z,50.10
2022-11-29T01:21:14.924Z,49.78
2022-11-29T01:23:43.457Z,42.75
2022-11-29T01:26:14.599Z,55.80
2022-11-29T01:28:42.923Z,47.67
2022-11-29T01:31:13.836Z,49.17
2022-11-29T01:33:42.693Z,40.58
2022-11-29T01:36:11.535Z,54.40
2022-11-29T01:38:42.517Z,48.72
2022-11-29T01:41:14.059Z,50.90
2022-11-29T01:44:01.329Z,53.17
2022-11-29T01:46:30.618Z,53.17
2022-11-29T01:49:01.819Z,53.55
2022-11-29T01:51:30.807Z,49.15
2022-11-29T01:54:00.874Z,48.65
2022-11-29T01:56:31.366Z,56.83
2022-11-29T01:58:59.592Z,41.63
2022-11-29T02:01:27.731Z,50.40
2022-11-29T02:03:56.081Z,48.35
2022-11-29T02:06:24.768Z,47.17
2022-11-29T02:08:52.807Z,38.58
2022-11-29T02:11:47.725Z,38.88
2022-11-29T02:14:38.753Z,42.40
2022-11-29T02:17:19.968Z,39.53
2022-11-29T02:20:23.988Z,59.25
2022-11-29T02:22:58.914Z,66.55
2022-11-29T02:25:49.502Z,66.38
2022-11-29T02:28:49.988Z,57.10
2022-11-29T02:31:50.141Z,58.00
2022-11-29T02:34:43.185Z,52.38
2022-11-29T02:37:24.820Z,56.92
2022-11-29T02:40:24.626Z,49.92
2022-11-29T02:43:41.616Z,59.45
2022-11-29T02:46:21.434Z,53.85
2022-11-29T02:49:04.349Z,58.60
2022-11-29T02:51:42.464Z,52.45
2022-11-29T02:54:19.811Z,53.47
2022-11-29T02:56:56.223Z,52.33
2022-11-29T02:59:40.866Z,49.53
2022-11-29T03:02:19.151Z,55.92
2022-11-29T03:04:52.095Z,51.30
2022-11-29T03:07:32.277Z,45.50
2022-11-29T03:10:10.159Z,52.97
2022-11-29T03:12:41.916Z,55.40
2022-11-29T03:15:20.655Z,53.13
2022-11-29T03:18:03.632Z,51.45
2022-11-29T03:20:46.392Z,47.20
2022-11-29T03:23:25.516Z,62.88
2022-11-29T03:25:58.863Z,52.72
2022-11-29T03:28:32.973Z,36.30
2022-11-29T03:31:08.781Z,43.30
2022-11-29T03:33:46.663Z,30.20
2022-11-29T03:36:22.787Z,32.22
2022-11-29T03:38:56.239Z,44.92
2022-11-29T03:41:29.443Z,54.55
2022-11-29T03:44:03.612Z,33.13
2022-11-29T03:46:39.398Z,38.83
2022-11-29T03:49:13.627Z,37.35
2022-11-29T03:51:55.776Z,40.15
2022-11-29T03:54:29.560Z,36.47
2022-11-29T03:56:58.131Z,41.08
2022-11-29T03:59:39.078Z,39.42
2022-11-29T04:02:48.232Z,37.42
2022-11-29T04:05:41.588Z,47.13
2022-11-29T04:08:42.464Z,41.63
2022-11-29T04:11:55.795Z,37.15
2022-11-29T04:14:34.971Z,39.10
2022-11-29T04:17:43.101Z,40.60
2022-11-29T04:20:42.032Z,34.60
2022-11-29T04:23:33.565Z,47.17
2022-11-29T04:26:29.687Z,38.33
2022-11-29T04:29:14.935Z,32.75
2022-11-29T04:32:02.684Z,41.67
2022-11-29T04:34:58.604Z,41.53
2022-11-29T04:37:55.926Z,32.63
2022-11-29T04:40:37.600Z,42.15
2022-11-29T04:43:20.948Z,43.50
2022-11-29T04:46:21.552Z,50.88
2022-11-29T04:49:20.241Z,40.50
2022-11-29T04:52:08.578Z,47.47
2022-11-29T04:54:44.594Z,31.63
2022-11-29T04:57:23.874Z,40.60
2022-11-29T05:00:01.337Z,40.50
2022-11-29T05:02:36.353Z,39.95
2022-11-29T05:05:19.663Z,38.67
2022-11-29T05:07:54.956Z,44.47
2022-11-29T05:10:29.943Z,39.10
2022-11-29T05:13:08.391Z,37.95
2022-11-29T05:15:56.921Z,39.28
2022-11-29T05:18:36.826Z,39.13
2022-11-29T05:21:12.415Z,34.33
2022-11-29T05:23:50.016Z,39.50
2022-11-29T05:26:27.094Z,43.15
2022-11-29T05:29:03.164Z,40.95
2022-11-29T05:31:46.863Z,42.42
2022-11-29T05:34:39.746Z,46.17
2022-11-29T05:37:23.187Z,36.80
2022-11-29T05:40:04.744Z,91.13
2022-11-29T05:43:05.276Z,51.83
2022-11-29T05:45:37.396Z,40.33
2022-11-29T05:48:12.231Z,40.38
2022-11-29T05:50:47.619Z,51.88
2022-11-29T05:53:24.747Z,72.13
2022-11-29T05:56:06.986Z,46.15
2022-11-29T05:58:43.398Z,48.35
2022-11-29T06:01:23.929Z,58.10
2022-11-29T06:04:01.374Z,153.95
2022-11-29T06:06:39.646Z,56.55
2022-11-29T06:09:16.213Z,49.08
2022-11-29T06:11:48.091Z,61.83
2022-11-29T06:14:34.301Z,68.22
2022-11-29T06:17:26.001Z,66.90
2022-11-29T06:20:11.172Z,67.10
2022-11-29T06:22:59.624Z,73.45
2022-11-29T06:25:47.285Z,54.25
2022-11-29T06:28:29.463Z,54.67
2022-11-29T06:31:03.905Z,58.10
2022-11-29T06:33:40.499Z,46.10
2022-11-29T06:36:17.817Z,77.57
2022-11-29T06:38:46.036Z,57.08
2022-11-29T06:41:20.599Z,53.22
2022-11-29T06:43:50.039Z,59.83
2022-11-29T06:46:28.132Z,55.70
2022-11-29T06:49:03.985Z,53.85
2022-11-29T06:51:38.313Z,47.90
2022-11-29T06:54:20.667Z,48.25
2022-11-29T06:57:04.154Z,65.55
2022-11-29T06:59:45.338Z,71.55
2022-11-29T07:02:28.944Z,61.00
2022-11-29T07:05:11.166Z,52.42
2022-11-29T07:07:40.157Z,55.53
2022-11-29T07:10:15.201Z,56.65
2022-11-29T07:12:45.814Z,76.80
2022-11-29T07:15:18.765Z,79.00
2022-11-29T07:17:58.749Z,64.55
2022-11-29T07:20:38.214Z,62.22
2022-11-29T07:23:14.681Z,81.75
2022-11-29T07:25:53.725Z,95.40
2022-11-29T07:28:37.290Z,57.78
2022-11-29T07:31:11.876Z,83.82
2022-11-29T07:33:50.985Z,84.63
2022-11-29T07:36:30.732Z,71.45
2022-11-29T07:39:11.522Z,68.57
2022-11-29T07:41:46.383Z,71.45
2022-11-29T07:44:28.631Z,88.32
2022-11-29T07:46:56.654Z,88.50
2022-11-29T07:49:24.764Z,83.32
2022-11-29T07:51:52.782Z,80.18
2022-11-29T07:54:22.139Z,78.18
2022-11-29T07:56:50.259Z,81.30
2022-11-29T07:59:20.207Z,96.72
2022-11-29T08:01:48.351Z,86.95
2022-11-29T08:04:17.161Z,70.35
2022-11-29T08:06:45.248Z,73.15
2022-11-29T08:09:13.162Z,64.93
2022-11-29T08:11:41.213Z,68.35
2022-11-29T08:14:09.505Z,64.72
2022-11-29T08:16:39.048Z,91.00
2022-11-29T08:19:07.215Z,87.97
2022-11-29T08:21:35.188Z,96.97
2022-11-29T08:24:03.133Z,90.05
2022-11-29T08:26:31.782Z,70.55
2022-11-29T08:28:59.961Z,73.82
2022-11-29T08:31:27.897Z,83.63
2022-11-29T08:33:57.396Z,97.75
2022-11-29T08:36:25.350Z,87.28
2022-11-29T08:39:01.268Z,88.93
2022-11-29T08:41:32.142Z,74.28
2022-11-29T08:44:00.213Z,69.13
2022-11-29T08:46:48.558Z,71.97
2022-11-29T08:49:18.467Z,85.13
2022-11-29T08:51:46.386Z,84.88
2022-11-29T08:54:13.505Z,76.15
2022-11-29T08:59:29.400Z,69.93
2022-11-29T09:01:57.452Z,63.20
2022-11-29T09:04:26.931Z,61.28
2022-11-29T09:06:54.948Z,66.78
2022-11-29T09:09:23.051Z,77.43
2022-11-29T09:11:52.225Z,61.80
2022-11-29T09:14:22.331Z,54.63
2022-11-29T09:16:50.351Z,77.28
2022-11-29T09:19:18.517Z,44.80
2022-11-29T09:21:47.941Z,55.95
2022-11-29T09:24:16.263Z,43.38
2022-11-29T09:26:48.245Z,48.55
2022-11-29T09:29:17.741Z,43.42
2022-11-29T09:31:46.071Z,62.03
2022-11-29T09:34:14.185Z,50.42
2022-11-29T09:36:44.226Z,54.60
2022-11-29T09:39:13.795Z,46.65
2022-11-29T09:41:58.493Z,65.53
2022-11-29T09:44:34.308Z,58.90
2022-11-29T09:47:18.176Z,63.88
2022-11-29T09:50:13.222Z,41.75
2022-11-29T09:52:51.731Z,46.60
2022-11-29T09:55:43.107Z,34.53
2022-11-29T09:58:18.049Z,36.55
2022-11-29T10:00:50.595Z,59.15
2022-11-29T10:03:25.537Z,45.53
2022-11-29T10:06:00.044Z,62.45
2022-11-29T10:08:34.115Z,36.40
2022-11-29T10:11:14.501Z,35.75
2022-11-29T10:13:46.664Z,50.63
2022-11-29T10:16:20.006Z,45.17
2022-11-29T10:18:52.544Z,36.85
2022-11-29T10:21:26.216Z,43.78
2022-11-29T10:23:58.773Z,48.35
2022-11-29T10:26:34.777Z,42.42
2022-11-29T10:29:04.038Z,40.97
2022-11-29T10:31:40.244Z,33.33
2022-11-29T10:34:14.367Z,39.25
2022-11-29T10:36:45.999Z,54.50
2022-11-29T10:39:22.405Z,41.90
2022-11-29T10:41:56.955Z,37.22
2022-11-29T10:44:26.054Z,44.17
2022-11-29T10:46:54.860Z,46.28
2022-11-29T10:49:27.479Z,59.70
2022-11-29T10:51:55.678Z,38.97
2022-11-29T10:54:35.015Z,32.13
2022-11-29T10:57:14.300Z,32.78
2022-11-29T10:59:42.612Z,54.08
2022-11-29T11:02:19.693Z,45.03
2022-11-29T11:04:50.316Z,55.50
2022-11-29T11:07:29.020Z,51.22
2022-11-29T11:09:58.904Z,44.13
2022-11-29T11:12:30.689Z,29.35
2022-11-29T11:15:27.695Z,48.05
2022-11-29T11:18:00.167Z,41.83
2022-11-29T11:20:31.552Z,44.28
2022-11-29T11:23:02.047Z,47.72
2022-11-29T11:25:34.763Z,39.70
2022-11-29T11:28:20.465Z,28.42
2022-11-29T11:30:53.520Z,36.88
2022-11-29T11:33:25.275Z,61.97
2022-11-29T11:36:09.741Z,39.17
2022-11-29T11:38:39.239Z,40.42
2022-11-29T11:41:17.989Z,44.97
2022-11-29T11:43:54.507Z,58.38
2022-11-29T11:46:22.655Z,52.45
2022-11-29T11:48:52.672Z,49.33
2022-11-29T11:51:24.303Z,39.55
2022-11-29T11:53:55.736Z,55.92
2022-11-29T11:56:26.256Z,46.97
2022-11-29T11:58:58.159Z,69.85
2022-11-29T12:01:30.796Z,51.35
2022-11-29T12:04:04.670Z,71.38
2022-11-29T12:06:48.018Z,30.02
2022-11-29T12:09:24.809Z,38.95
2022-11-29T12:12:01.505Z,54.80
2022-11-29T12:14:42.576Z,40.47
2022-11-29T12:17:20.114Z,50.83
2022-11-29T12:20:00.681Z,31.05
2022-11-29T12:22:34.080Z,34.47
2022-11-29T12:25:07.595Z,56.58
2022-11-29T12:27:35.592Z,48.97
2022-11-29T12:30:12.744Z,62.30
2022-11-29T12:33:01.160Z,68.47
2022-11-29T12:35:54.696Z,61.60
2022-11-29T12:38:50.075Z,47.50
2022-11-29T12:41:30.477Z,60.28
2022-11-29T12:44:08.194Z,58.75
2022-11-29T12:46:38.562Z,37.38
2022-11-29T12:49:17.383Z,51.05
2022-11-29T12:51:54.620Z,54.67
2022-11-29T12:54:41.442Z,66.45
2022-11-29T12:57:16.788Z,74.07
2022-11-29T13:00:05.359Z,54.85
2022-11-29T13:02:48.726Z,60.03
2022-11-29T13:05:25.243Z,60.22
2022-11-29T13:08:12.553Z,53.17
2022-11-29T13:10:57.032Z,61.10
2022-11-29T13:13:36.204Z,67.93
2022-11-29T13:16:10.150Z,31.10
2022-11-29T13:18:52.798Z,42.22
2022-11-29T13:21:28.942Z,59.28
2022-11-29T13:24:09.739Z,38.65
2022-11-29T13:26:40.140Z,46.60
2022-11-29T13:29:14.433Z,54.92
2022-11-29T13:31:43.207Z,47.20
2022-11-29T13:34:18.900Z,50.63
2022-11-29T13:36:55.293Z,52.25
2022-11-29T13:39:36.710Z,84.18
2022-11-29T13:42:08.761Z,64.28
2022-11-29T13:44:46.021Z,68.43
2022-11-29T13:47:15.782Z,60.80
2022-11-29T13:50:02.598Z,73.20
2022-11-29T13:52:43.047Z,63.72
2022-11-29T13:55:31.523Z,93.95
2022-11-29T13:58:22.280Z,95.10
2022-11-29T14:00:52.272Z,107.35
2022-11-29T14:03:31.589Z,128.50
2022-11-29T14:06:13.968Z,95.85
2022-11-29T14:09:22.174Z,114.75
2022-11-29T14:11:59.435Z,122.28
2022-11-29T14:14:32.009Z,135.98
2022-11-29T14:17:02.885Z,150.52
2022-11-29T14:19:34.308Z,66.15
2022-11-29T14:22:33.553Z,100.80
2022-11-29T14:25:21.720Z,99.75
2022-11-29T14:28:02.686Z,113.38
2022-11-29T14:30:46.511Z,74.85
2022-11-29T14:33:32.911Z,95.65
2022-11-29T14:36:14.519Z,92.97
2022-11-29T14:38:50.970Z,87.47
2022-11-29T14:41:28.683Z,69.93
2022-11-29T14:44:15.724Z,54.88
2022-11-29T14:46:44.181Z,62.83
2022-11-29T14:49:23.518Z,67.32
2022-11-29T14:52:17.949Z,62.63
2022-11-29T14:54:59.884Z,62.33
2022-11-29T14:58:06.264Z,71.32
2022-11-29T15:00:44.580Z,73.60
2022-11-29T15:03:16.637Z,72.82
2022-11-29T15:05:46.959Z,92.05
2022-11-29T15:08:21.979Z,74.00
2022-11-29T15:10:54.624Z,75.78
2022-11-29T15:13:27.200Z,86.28
2022-11-29T15:16:12.957Z,125.85
2022-11-29T15:19:03.014Z,111.20
2022-11-29T15:21:38.931Z,130.85
2022-11-29T15:24:11.992Z,115.03
2022-11-29T15:26:56.675Z,97.65
2022-11-29T15:29:25.307Z,71.07
2022-11-29T15:31:55.396Z,68.28
2022-11-29T15:34:31.590Z,72.18
2022-11-29T15:36:59.527Z,89.00
2022-11-29T15:39:30.860Z,81.50
2022-11-29T15:42:04.572Z,90.65
2022-11-29T15:44:33.939Z,83.63
2022-11-29T15:47:22.030Z,79.72
2022-11-29T15:49:50.762Z,92.57
2022-11-29T15:52:25.820Z,119.07
2022-11-29T15:55:00.085Z,110.68
2022-11-29T15:57:35.192Z,108.60
2022-11-29T16:00:07.167Z,91.05
2022-11-29T16:02:37.805Z,70.15
2022-11-29T16:05:15.855Z,38.67
2022-11-29T16:07:46.492Z,58.53
2022-11-29T16:10:17.970Z,69.28
2022-11-29T16:12:55.426Z,58.85
2022-11-29T16:15:30.725Z,61.30
2022-11-29T16:18:18.989Z,60.72
2022-11-29T16:21:00.293Z,44.25
2022-11-29T16:23:34.848Z,52.95
2022-11-29T16:26:08.277Z,29.05
2022-11-29T16:28:43.206Z,64.88
2022-11-29T16:31:18.020Z,43.78
2022-11-29T16:33:47.683Z,57.03
2022-11-29T16:36:19.988Z,40.83
2022-11-29T16:38:50.494Z,50.95
2022-11-29T16:41:33.548Z,64.50
2022-11-29T16:44:04.908Z,55.67
2022-11-29T16:46:40.052Z,100.15
2022-11-29T16:49:36.454Z,101.05
2022-11-29T16:52:18.641Z,109.90
2022-11-29T16:54:46.548Z,108.13
2022-11-29T16:57:14.534Z,84.40
2022-11-29T16:59:43.912Z,101.85
2022-11-29T17:02:12.625Z,83.45
2022-11-29T17:04:40.811Z,85.60
2022-11-29T17:07:13.886Z,90.80
2022-11-29T17:09:41.908Z,75.55
2022-11-29T17:12:14.229Z,77.97
2022-11-29T17:14:43.874Z,64.22
2022-11-29T17:17:14.873Z,66.95
2022-11-29T17:19:42.785Z,45.85
2022-11-29T17:22:10.608Z,63.30
2022-11-29T17:24:44.787Z,79.63
2022-11-29T17:27:15.366Z,103.90
2022-11-29T17:29:44.573Z,95.57
2022-11-29T17:32:12.416Z,53.90
2022-11-29T17:34:40.288Z,72.90
2022-11-29T17:37:08.184Z,64.72
2022-11-29T17:39:36.022Z,91.32
2022-11-29T17:42:03.878Z,80.90
2022-11-29T17:44:33.969Z,83.00
2022-11-29T17:47:04.628Z,74.68
2022-11-29T17:49:32.442Z,77.93
2022-11-29T17:52:00.223Z,75.65
2022-11-29T17:54:28.072Z,81.60
2022-11-29T17:56:56.427Z,85.65
2022-11-29T17:59:24.366Z,104.25
2022-11-29T18:01:52.391Z,101.82
2022-11-29T18:04:21.978Z,112.80
2022-11-29T18:06:50.683Z,113.35
2022-11-29T18:09:20.004Z,101.18
2022-11-29T18:11:58.595Z,108.80
2022-11-29T18:14:29.325Z,96.78
2022-11-29T18:17:01.036Z,109.28
2022-11-29T18:19:31.368Z,107.20
2022-11-29T18:21:59.230Z,101.57
2022-11-29T18:24:27.049Z,119.13
2022-11-29T18:26:54.902Z,121.72
2022-11-29T18:29:23.193Z,105.88
2022-11-29T18:31:51.790Z,97.28
2022-11-29T18:34:19.653Z,91.30
2022-11-29T18:36:49.803Z,99.72
2022-11-29T18:39:20.318Z,94.07
2022-11-29T18:41:50.358Z,86.55
2022-11-29T18:44:20.275Z,106.13
2022-11-29T18:46:48.770Z,87.57
2022-11-29T18:49:18.323Z,78.20
2022-11-29T18:51:48.446Z,75.70
2022-11-29T18:54:17.830Z,76.88
2022-11-29T18:56:46.635Z,92.03
2022-11-29T18:59:17.916Z,87.38
2022-11-29T19:01:48.020Z,92.40
2022-11-29T19:04:18.310Z,78.72
2022-11-29T19:06:46.968Z,76.90
2022-11-29T19:09:20.967Z,88.90
2022-11-29T19:11:49.774Z,98.05
2022-11-29T19:14:18.052Z,93.43
2022-11-29T19:16:47.580Z,93.45
2022-11-29T19:19:15.464Z,91.30
2022-11-29T19:21:43.567Z,103.95
2022-11-29T19:24:15.143Z,101.78
2022-11-29T19:26:46.001Z,89.05
2022-11-29T19:29:14.534Z,97.38
2022-11-29T19:31:43.069Z,85.65
2022-11-29T19:34:11.266Z,89.30
2022-11-29T19:36:43.588Z,88.03
2022-11-29T19:39:14.306Z,82.35
2022-11-29T19:41:45.541Z,76.97
2022-11-29T19:44:13.779Z,94.47
2022-11-29T19:46:45.751Z,81.05
2022-11-29T19:49:15.528Z,98.57
2022-11-29T19:51:44.196Z,90.95
2022-11-29T19:54:12.945Z,81.93
2022-11-29T19:56:41.136Z,87.78
2022-11-29T19:59:10.553Z,76.45
2022-11-29T20:01:42.395Z,74.65
2022-11-29T20:04:12.036Z,104.72
2022-11-29T20:06:40.119Z,80.78
2022-11-29T20:09:08.282Z,88.47
2022-11-29T20:11:36.291Z,81.65
2022-11-29T20:14:08.540Z,79.25
2022-11-29T20:16:39.877Z,67.07
2022-11-29T20:19:12.231Z,87.45
2022-11-29T20:21:44.130Z,89.18
2022-11-29T20:24:14.628Z,87.63
2022-11-29T20:26:44.556Z,73.13
2022-11-29T20:29:13.637Z,91.57
2022-11-29T20:31:49.546Z,82.70
2022-11-29T20:34:21.889Z,85.30
2022-11-29T20:37:17.175Z,100.95
2022-11-29T20:39:51.293Z,96.68
2022-11-29T20:42:43.977Z,105.22
2022-11-29T20:45:14.406Z,109.68
2022-11-29T20:47:50.523Z,86.28
2022-11-29T20:50:23.131Z,81.90
2022-11-29T20:53:06.345Z,84.68
2022-11-29T20:55:38.704Z,97.63
2022-11-29T20:58:08.334Z,79.32
2022-11-29T21:00:36.785Z,85.50
2022-11-29T21:03:05.979Z,87.82
2022-11-29T21:05:33.997Z,87.45
2022-11-29T21:08:03.027Z,96.38
2022-11-29T21:10:31.027Z,77.43
2022-11-29T21:12:59.448Z,90.57
2022-11-29T21:15:28.215Z,86.22
2022-11-29T21:17:56.739Z,74.00
2022-11-29T21:20:28.499Z,76.60
2022-11-29T21:23:02.911Z,84.80
2022-11-29T21:25:43.126Z,76.70
2022-11-29T21:28:14.465Z,73.22
2022-11-29T21:30:43.034Z,89.50
2022-11-29T21:33:12.067Z,105.13
2022-11-29T21:35:41.621Z,99.90
2022-11-29T21:38:14.514Z,82.00
2022-11-29T21:40:42.380Z,85.97
2022-11-29T21:43:10.262Z,78.18
2022-11-29T21:45:38.145Z,105.40
2022-11-29T21:48:29.707Z,83.07
2022-11-29T21:50:58.881Z,86.30
2022-11-29T21:53:27.893Z,94.60
2022-11-29T21:55:59.224Z,93.75
2022-11-29T21:58:27.849Z,90.22
2022-11-29T22:00:55.780Z,86.38
2022-11-29T22:03:23.707Z,95.07
2022-11-29T22:05:51.635Z,85.80
2022-11-29T22:08:21.068Z,84.90
2022-11-29T22:10:48.944Z,83.38
2022-11-29T22:13:16.852Z,79.70
2022-11-29T22:15:45.069Z,84.97
2022-11-29T22:18:12.980Z,67.40
2022-11-29T22:20:40.890Z,86.20
2022-11-29T22:23:08.723Z,97.78
2022-11-29T22:25:37.899Z,81.10
2022-11-29T22:28:05.791Z,74.82
2022-11-29T22:30:33.581Z,81.05
2022-11-29T22:33:01.747Z,87.68
2022-11-29T22:35:29.597Z,90.45
2022-11-29T22:37:57.535Z,84.50
2022-11-29T22:40:25.470Z,96.72
2022-11-29T22:42:54.938Z,86.93
2022-11-29T22:45:22.711Z,94.43
2022-11-29T22:47:50.544Z,105.15
2022-11-29T22:50:18.469Z,85.38
2022-11-29T22:52:46.424Z,81.25
2022-11-29T22:55:14.326Z,76.53
2022-11-29T22:57:42.135Z,67.93
2022-11-29T23:00:13.897Z,76.70
2022-11-29T23:02:41.783Z,90.32
2022-11-29T23:05:09.856Z,68.85
2022-11-29T23:07:37.734Z,77.45
2022-11-29T23:10:06.457Z,73.22
2022-11-29T23:12:34.255Z,75.75
2022-11-29T23:15:02.780Z,66.50
2022-11-29T23:17:31.957Z,79.18
2022-11-29T23:19:59.730Z,68.80
2022-11-29T23:22:27.846Z,70.60
2022-11-29T23:24:55.719Z,59.22
2022-11-29T23:27:24.004Z,71.57
2022-11-29T23:29:51.808Z,67.07
2022-11-29T23:32:19.647Z,62.55
2022-11-29T23:34:49.289Z,66.82
2022-11-29T23:37:17.151Z,67.13
2022-11-29T23:39:45.015Z,71.35
2022-11-29T23:42:12.808Z,74.53
2022-11-29T23:44:40.594Z,55.88
2022-11-29T23:47:08.427Z,65.03
2022-11-29T23:49:39.781Z,68.65
2022-11-29T23:52:08.962Z,81.70
2022-11-29T23:54:36.890Z,76.45
2022-11-29T23:57:04.827Z,75.38
2022-11-29T23:59:32.698Z,72.85
